Terminal Aerodrome Forecast
Issued by NWS

Home | Current Version | Previous Version | Text Only | Print | Product List | Glossary On
Versions: 1 2 3 4 5 6 7 8 9 10 11 12 13 14 15 16 17
090
FTUS44 KLZK 011740
TAFADF
TAF
KADF 011740Z 0118/0218 36008KT P6SM BKN040
     FM020000 36004KT P6SM SCT100 BKN250
     FM020600 02003KT P6SM VCSH BKN050 OVC100
     FM021200 36006KT P6SM VCSH SCT025 OVC050 PROB30 0212/0218 5SM
      -RA BR OVC025
      AMD NOT SKED=

USA.gov is the U.S. government's official web portal to all federal, state and local government web resources and services.